createdAt,value
2018-02-12T00:08:21.989Z,4.13
2018-02-12T00:18:23.645Z,3.20
2018-02-12T00:28:25.941Z,3.10
2018-02-12T00:38:27.427Z,4.53
2018-02-12T00:48:28.951Z,3.90
2018-02-12T00:58:31.287Z,4.80
2018-02-12T01:08:33.544Z,4.90
2018-02-12T01:18:35.183Z,4.77
2018-02-12T01:28:36.709Z,4.00
2018-02-12T01:38:38.458Z,4.63
2018-02-12T01:48:40.005Z,4.10
2018-02-12T01:58:42.368Z,3.40
2018-02-12T02:08:43.947Z,4.93
2018-02-12T02:18:45.461Z,3.47
2018-02-12T02:28:47.028Z,3.13
2018-02-12T02:38:49.316Z,2.93
2018-02-12T02:48:50.852Z,3.00
2018-02-12T02:58:52.417Z,3.10
2018-02-12T03:08:54.007Z,3.50
2018-02-12T03:18:55.504Z,3.60
2018-02-12T03:28:57.160Z,3.07
2018-02-12T03:38:58.788Z,3.40
2018-02-12T03:49:00.257Z,3.40
2018-02-12T03:59:01.800Z,2.50
2018-02-12T04:09:03.357Z,2.60
2018-02-12T04:19:05.132Z,2.80
2018-02-12T04:29:06.804Z,3.87
2018-02-12T04:39:08.322Z,4.60
2018-02-12T04:49:09.876Z,3.23
2018-02-12T04:59:11.421Z,3.03
2018-02-12T05:09:12.976Z,3.50
2018-02-12T05:19:14.613Z,3.20
2018-02-12T05:29:16.126Z,2.30
2018-02-12T05:39:17.599Z,3.00
2018-02-12T05:49:19.124Z,4.27
2018-02-12T05:59:20.798Z,4.20
2018-02-12T06:09:22.545Z,4.57
2018-02-12T06:19:24.833Z,3.90
2018-02-12T06:29:26.385Z,3.80
2018-02-12T06:39:27.943Z,2.70
2018-02-12T06:49:32.088Z,3.90
2018-02-12T06:59:34.041Z,3.80
2018-02-12T07:09:36.323Z,4.30
2018-02-12T07:19:37.948Z,4.13
2018-02-12T07:29:40.443Z,4.83
2018-02-12T07:39:42.085Z,4.33
2018-02-12T07:49:44.399Z,3.77
2018-02-12T07:59:46.828Z,5.00
2018-02-12T08:09:48.356Z,3.83
2018-02-12T08:19:50.060Z,4.30
2018-02-12T08:29:51.626Z,4.23
2018-02-12T08:39:53.851Z,7.00
2018-02-12T08:49:55.415Z,6.93
2018-02-12T08:59:56.917Z,5.50
2018-02-12T09:09:58.621Z,6.10
2018-02-12T09:20:00.218Z,8.00
2018-02-12T09:30:01.763Z,6.10
2018-02-12T09:40:03.364Z,5.30
2018-02-12T09:50:04.912Z,5.80
2018-02-12T10:00:06.584Z,5.17
2018-02-12T10:10:08.190Z,5.03
2018-02-12T10:20:09.699Z,5.20
2018-02-12T10:30:11.341Z,5.17
2018-02-12T10:40:13.719Z,5.13
2018-02-12T10:50:15.607Z,5.10
2018-02-12T11:00:17.263Z,5.53
2018-02-12T11:10:19.643Z,5.20
2018-02-12T11:20:21.263Z,5.30
2018-02-12T11:30:22.804Z,4.20
2018-02-12T11:40:24.270Z,4.20
2018-02-12T11:50:26.706Z,3.70
2018-02-12T12:00:29.099Z,3.40
2018-02-12T12:10:30.644Z,3.80
2018-02-12T12:20:32.174Z,4.27
2018-02-12T12:30:33.770Z,3.20
2018-02-12T12:40:35.361Z,3.33
2018-02-12T12:50:36.991Z,3.00
2018-02-12T13:00:38.591Z,3.20
2018-02-12T13:10:40.360Z,3.53
2018-02-12T13:20:42.000Z,3.27
2018-02-12T13:30:43.571Z,2.73
2018-02-12T13:40:45.160Z,2.17
2018-02-12T13:50:46.707Z,2.70
2018-02-12T14:00:48.383Z,3.03
2018-02-12T14:10:49.955Z,2.90
2018-02-12T14:20:51.508Z,2.60
2018-02-12T14:30:54.084Z,3.10
2018-02-12T14:40:55.737Z,3.57
2018-02-12T14:50:57.254Z,3.30
2018-02-12T15:00:59.592Z,2.40
2018-02-12T15:11:01.153Z,2.27
2018-02-12T15:21:09.758Z,2.70
2018-02-12T15:31:11.334Z,4.50
2018-02-12T15:41:12.819Z,1.90
2018-02-12T15:51:14.365Z,3.00
2018-02-12T16:01:15.941Z,2.40
2018-02-12T16:11:18.316Z,3.17
2018-02-12T16:21:19.971Z,3.03
2018-02-12T16:31:21.561Z,2.90
2018-02-12T16:41:23.829Z,3.10
2018-02-12T16:51:25.533Z,3.30
2018-02-12T17:01:27.065Z,3.50
2018-02-12T17:11:28.589Z,3.60
2018-02-12T17:21:30.890Z,2.50
2018-02-12T17:31:32.512Z,2.67
2018-02-12T17:41:34.929Z,2.80
2018-02-12T17:51:37.258Z,4.50
2018-02-12T18:01:38.818Z,7.30
2018-02-12T18:11:40.274Z,4.10
2018-02-12T18:21:41.879Z,6.27
2018-02-12T18:31:43.450Z,8.37
2018-02-12T18:41:45.756Z,6.93
2018-02-12T18:51:48.130Z,9.30
2018-02-12T19:01:49.758Z,10.40
2018-02-12T19:11:51.293Z,30.73
2018-02-12T19:21:53.010Z,7.80
2018-02-12T19:31:54.557Z,7.50
2018-02-12T19:41:56.149Z,13.67
2018-02-12T19:51:57.758Z,8.37
2018-02-12T20:01:59.382Z,7.17
2018-02-12T20:12:01.715Z,8.20
2018-02-12T20:22:03.339Z,14.30
2018-02-12T20:32:05.108Z,11.40
2018-02-12T20:42:07.472Z,11.37
2018-02-12T20:52:09.064Z,7.97
2018-02-12T21:02:10.757Z,6.80
2018-02-12T21:12:12.357Z,10.00
2018-02-12T21:22:13.917Z,8.90
2018-02-12T21:32:15.565Z,9.40
2018-02-12T21:42:17.172Z,7.23
2018-02-12T21:52:18.805Z,9.37
2018-02-12T22:02:20.409Z,8.00
2018-02-12T22:12:21.969Z,7.60
2018-02-12T22:22:23.524Z,10.33
2018-02-12T22:32:25.146Z,9.63
2018-02-12T22:42:27.545Z,8.97
2018-02-12T22:52:29.094Z,10.13
2018-02-12T23:02:30.690Z,9.60
2018-02-12T23:12:32.280Z,10.67
2018-02-12T23:22:33.924Z,10.37
2018-02-12T23:32:35.467Z,9.17
2018-02-12T23:42:37.763Z,8.73
2018-02-12T23:52:39.319Z,8.77
